This is the latest recevied weather packets stored in our database for station/object BMCB-37. If no packets are shown the sender has not sent any weather packets the latest 10 day(s).
| Time | Temp. | Humidity | Pressure | Rain* | Wind** | Luminosity | Snow |
|---|---|---|---|---|---|---|---|
| 1777354235 | 7.22° C | 82% | 1023.2 hPa | 0 mm | - | 48 W/m² | - |
| 1777353037 | 6.67° C | 84% | 1023 hPa | 0 mm | - | 34 W/m² | - |
| 1777351839 | 6.67° C | 82% | 1023.1 hPa | 0 mm | - | 14 W/m² | - |
| 1777348834 | 6.67° C | 80% | 1023.1 hPa | 0 mm | - | 0 W/m² | - |
| 1777348227 | 7.22° C | 80% | 1023.1 hPa | 0 mm | - | 0 W/m² | - |
| 1777344639 | 7.78° C | 75% | 1023.4 hPa | 0 mm | - | 0 W/m² | - |
| 1777333240 | 8.33° C | 76% | 1023.6 hPa | 0 mm | - | 0 W/m² | - |
| 1777332037 | 8.89° C | 76% | 1023.6 hPa | 0 mm | - | 0 W/m² | - |
| 1777317038 | 13.33° C | 62% | 1023.3 hPa | 0 mm | - | 0 W/m² | - |
| 1777315834 | 13.89° C | 59% | 1023 hPa | 0 mm | - | 6 W/m² | - |
| 1777314038 | 15° C | 56% | 1023 hPa | 0 mm | - | 32 W/m² | - |
| 1777312235 | 16.11° C | 51% | 1023 hPa | 0 mm | - | 62 W/m² | - |
| 1777305642 | 19.44° C | 34% | 1023.3 hPa | 0 mm | - | 378 W/m² | - |
| 1777297237 | 18.89° C | 37% | 1024.9 hPa | 0 mm | - | 670 W/m² | - |
| 1777290039 | 17.22° C | 42% | 1025.8 hPa | 0 mm | - | 712 W/m² | - |
| 1777285238 | 15.56° C | 51% | 1026.7 hPa | 0 mm | - | 686 W/m² | - |
| 1777282836 | 15° C | 54% | 1026.8 hPa | 0 mm | - | 600 W/m² | - |
| 1777281621 | 13.89° C | 62% | 1026.8 hPa | 0 mm | - | 610 W/m² | - |
| 1777271438 | 5.56° C | 92% | 1027.4 hPa | 0 mm | - | 136 W/m² | - |
| 1777260619 | 2.22° C | 98% | 1027.1 hPa | 0 mm | - | 0 W/m² | - |
| 1777260019 | 2.22° C | 98% | 1027.2 hPa | 0 mm | - | 0 W/m² | - |
| 1777255838 | 3.33° C | 96% | 1027.1 hPa | 0 mm | - | 0 W/m² | - |
| 1777254025 | 3.89° C | 96% | 1027.1 hPa | 0 mm | - | 0 W/m² | - |
| 1777253424 | 3.89° C | 95% | 1027.2 hPa | 0 mm | - | 0 W/m² | - |
| 1777252234 | 3.89° C | 94% | 1027.3 hPa | 0 mm | - | 0 W/m² | - |
* Rain latest hour (hover to see other rain measurements)
** Current wind speed in m/s (hover to see current wind gust speed)